createdAt,value
2022-08-20T00:00:27.374Z,39.70
2022-08-20T00:03:09.194Z,39.60
2022-08-20T00:05:38.604Z,39.39
2022-08-20T00:08:05.898Z,39.55
2022-08-20T00:10:33.910Z,39.78
2022-08-20T00:13:01.362Z,39.65
2022-08-20T00:15:30.042Z,39.30
2022-08-20T00:17:57.173Z,39.54
2022-08-20T00:20:27.225Z,39.43
2022-08-20T00:22:54.375Z,40.00
2022-08-20T00:25:21.336Z,39.58
2022-08-20T00:27:48.188Z,39.90
2022-08-20T00:30:15.375Z,39.98
2022-08-20T00:32:46.743Z,40.01
2022-08-20T00:35:16.482Z,39.71
2022-08-20T00:37:43.647Z,39.75
2022-08-20T00:40:22.238Z,40.00
2022-08-20T00:42:53.130Z,39.76
2022-08-20T00:45:20.315Z,39.84
2022-08-20T00:47:51.330Z,40.30
2022-08-20T00:50:22.095Z,40.25
2022-08-20T00:52:50.741Z,40.14
2022-08-20T00:55:18.502Z,40.17
2022-08-20T00:58:00.638Z,40.02
2022-08-20T01:00:35.745Z,40.21
2022-08-20T01:03:02.944Z,39.86
2022-08-20T01:05:30.115Z,40.09
2022-08-20T01:07:57.450Z,40.03
2022-08-20T01:10:27.766Z,39.98
2022-08-20T01:12:59.183Z,40.34
2022-08-20T01:15:31.099Z,40.05
2022-08-20T01:17:59.166Z,40.29
2022-08-20T01:20:37.686Z,40.33
2022-08-20T01:23:29.884Z,40.40
2022-08-20T01:26:06.101Z,40.46
2022-08-20T01:28:45.987Z,40.60
2022-08-20T01:31:15.254Z,40.58
2022-08-20T01:33:44.718Z,40.97
2022-08-20T01:36:13.713Z,40.75
2022-08-20T01:38:40.782Z,40.82
2022-08-20T01:41:28.030Z,40.58
2022-08-20T01:43:58.827Z,40.98
2022-08-20T01:46:31.225Z,41.22
2022-08-20T01:49:00.197Z,41.01
2022-08-20T01:51:30.255Z,40.99
2022-08-20T01:53:59.683Z,41.26
2022-08-20T01:56:29.525Z,40.91
2022-08-20T01:58:58.984Z,41.54
2022-08-20T02:01:46.290Z,41.56
2022-08-20T02:04:15.340Z,41.04
2022-08-20T02:06:56.809Z,41.20
2022-08-20T02:09:29.428Z,41.48
2022-08-20T02:11:57.580Z,41.20
2022-08-20T02:14:24.756Z,40.85
2022-08-20T02:16:54.824Z,40.82
2022-08-20T02:19:41.376Z,41.13
2022-08-20T02:22:24.480Z,40.88
2022-08-20T02:24:51.876Z,40.97
2022-08-20T02:27:19.128Z,40.82
2022-08-20T02:29:46.844Z,40.92
2022-08-20T02:32:32.493Z,40.51
2022-08-20T02:35:03.871Z,40.87
2022-08-20T02:37:32.146Z,40.77
2022-08-20T02:39:59.162Z,40.63
2022-08-20T02:42:26.672Z,40.89
2022-08-20T02:44:54.519Z,40.72
2022-08-20T02:47:21.387Z,40.81
2022-08-20T02:49:48.454Z,40.22
2022-08-20T02:52:15.380Z,40.92
2022-08-20T02:54:42.243Z,41.04
2022-08-20T02:57:14.053Z,40.57
2022-08-20T02:59:40.939Z,40.61
2022-08-20T03:02:07.799Z,40.71
2022-08-20T03:04:34.907Z,40.65
2022-08-20T03:07:01.883Z,40.60
2022-08-20T03:09:28.790Z,40.25
2022-08-20T03:11:55.895Z,40.60
2022-08-20T03:14:23.603Z,40.91
2022-08-20T03:16:50.567Z,41.03
2022-08-20T03:19:17.638Z,40.62
2022-08-20T03:21:45.138Z,40.73
2022-08-20T03:24:12.090Z,40.74
2022-08-20T03:26:39.210Z,40.62
2022-08-20T03:29:06.123Z,40.56
2022-08-20T03:31:33.061Z,40.79
2022-08-20T03:34:00.194Z,40.72
2022-08-20T03:36:28.748Z,40.66
2022-08-20T03:38:57.535Z,40.51
2022-08-20T03:41:24.954Z,40.73
2022-08-20T03:43:52.588Z,41.00
2022-08-20T03:46:23.052Z,40.53
2022-08-20T03:48:56.681Z,40.65
2022-08-20T03:51:30.843Z,41.04
2022-08-20T03:53:58.107Z,40.65
2022-08-20T03:56:25.549Z,40.44
2022-08-20T03:58:52.575Z,40.59
2022-08-20T04:01:44.819Z,41.27
2022-08-20T04:04:12.643Z,40.57
2022-08-20T04:06:41.098Z,40.64
2022-08-20T04:09:09.533Z,40.82
2022-08-20T04:11:38.482Z,41.05
2022-08-20T04:14:05.639Z,41.03
2022-08-20T04:16:33.513Z,40.87
2022-08-20T04:19:01.972Z,41.12
2022-08-20T04:21:33.778Z,40.92
2022-08-20T04:24:04.889Z,40.98
2022-08-20T04:26:32.244Z,40.63
2022-08-20T04:28:59.145Z,40.65
2022-08-20T04:31:32.716Z,40.60
2022-08-20T04:34:02.891Z,41.12
2022-08-20T04:36:29.909Z,40.80
2022-08-20T04:38:57.046Z,40.89
2022-08-20T04:41:24.497Z,40.98
2022-08-20T04:43:53.589Z,40.68
2022-08-20T04:46:20.660Z,40.53
2022-08-20T04:48:48.496Z,41.03
2022-08-20T04:51:15.741Z,41.32
2022-08-20T04:53:43.139Z,40.84
2022-08-20T04:56:10.319Z,40.90
2022-08-20T04:58:38.944Z,40.80
2022-08-20T05:01:09.559Z,40.77
2022-08-20T05:03:39.956Z,40.60
2022-08-20T05:06:09.180Z,40.90
2022-08-20T05:08:36.416Z,40.99
2022-08-20T05:11:30.183Z,41.16
2022-08-20T05:13:53.619Z,41.14
2022-08-20T05:16:20.971Z,40.69
2022-08-20T05:18:52.609Z,40.70
2022-08-20T05:21:20.504Z,40.56
2022-08-20T05:23:47.717Z,40.58
2022-08-20T05:26:16.125Z,40.79
2022-08-20T05:28:58.546Z,40.57
2022-08-20T05:31:32.115Z,40.51
2022-08-20T05:34:11.718Z,40.81
2022-08-20T05:36:40.217Z,40.97
2022-08-20T05:39:07.511Z,40.57
2022-08-20T05:41:34.503Z,40.59
2022-08-20T05:44:01.862Z,40.81
2022-08-20T05:46:31.555Z,40.36
2022-08-20T05:49:00.161Z,40.72
2022-08-20T05:51:28.559Z,40.24
2022-08-20T05:53:59.344Z,40.63
2022-08-20T05:56:30.655Z,41.28
2022-08-20T05:59:01.363Z,41.44
2022-08-20T06:01:28.383Z,41.17
2022-08-20T06:04:14.171Z,41.13
2022-08-20T06:06:46.083Z,41.15
2022-08-20T06:09:15.459Z,41.25
2022-08-20T06:11:42.682Z,41.33
2022-08-20T06:14:09.639Z,41.06
2022-08-20T06:16:37.334Z,41.07
2022-08-20T06:19:05.667Z,40.94
2022-08-20T06:21:32.753Z,40.71
2022-08-20T06:24:01.563Z,41.04
2022-08-20T06:26:29.947Z,41.03
2022-08-20T06:29:02.047Z,40.79
2022-08-20T06:31:28.960Z,40.62
2022-08-20T06:33:56.238Z,40.82
2022-08-20T06:36:23.255Z,40.46
2022-08-20T06:38:50.167Z,40.40
2022-08-20T06:41:17.463Z,40.41
2022-08-20T06:43:44.362Z,40.63
2022-08-20T06:46:11.234Z,40.61
2022-08-20T06:48:38.350Z,40.25
2022-08-20T06:51:06.858Z,40.42
2022-08-20T06:53:33.946Z,40.17
2022-08-20T06:56:01.183Z,40.45
2022-08-20T06:58:38.406Z,40.36
2022-08-20T07:01:12.060Z,40.32
2022-08-20T07:03:42.364Z,39.94
2022-08-20T07:06:26.810Z,39.99
2022-08-20T07:08:54.720Z,39.89
2022-08-20T07:11:26.584Z,39.91
2022-08-20T07:13:54.641Z,39.94
2022-08-20T07:16:21.616Z,40.03
2022-08-20T07:18:48.552Z,39.93
2022-08-20T07:21:17.557Z,39.61
2022-08-20T07:23:44.526Z,39.54
2022-08-20T07:26:12.928Z,39.51
2022-08-20T07:28:40.079Z,39.48
2022-08-20T07:31:25.477Z,39.53
2022-08-20T07:33:54.148Z,40.03
2022-08-20T07:36:21.556Z,39.76
2022-08-20T07:38:51.094Z,39.79
2022-08-20T07:41:18.730Z,39.39
2022-08-20T07:43:45.923Z,39.66
2022-08-20T07:46:13.813Z,39.56
2022-08-20T07:48:41.979Z,39.64
2022-08-20T07:51:09.644Z,39.49
2022-08-20T07:53:37.264Z,39.61
2022-08-20T07:56:06.136Z,39.86
2022-08-20T07:58:35.775Z,39.55
2022-08-20T08:01:03.044Z,39.47
2022-08-20T08:03:39.669Z,39.43
2022-08-20T08:06:29.618Z,39.44
2022-08-20T08:09:01.264Z,39.38
2022-08-20T08:11:28.230Z,39.35
2022-08-20T08:13:55.113Z,39.63
2022-08-20T08:16:22.341Z,39.35
2022-08-20T08:18:50.559Z,39.42
2022-08-20T08:21:19.105Z,39.28
2022-08-20T08:23:50.934Z,39.26
2022-08-20T08:26:20.693Z,39.11
2022-08-20T08:28:47.808Z,38.96
2022-08-20T08:31:14.930Z,38.94
2022-08-20T08:33:41.948Z,38.56
2022-08-20T08:36:12.569Z,38.59
2022-08-20T08:38:41.115Z,38.80
2022-08-20T08:41:13.903Z,38.64
2022-08-20T08:43:41.198Z,38.55
2022-08-20T08:46:10.711Z,38.79
2022-08-20T08:48:43.486Z,38.55
2022-08-20T08:51:12.604Z,38.32
2022-08-20T08:53:42.431Z,38.85
2022-08-20T08:56:09.621Z,38.71
2022-08-20T08:58:36.841Z,38.74
2022-08-20T09:01:53.212Z,38.54
2022-08-20T09:04:05.575Z,38.72
2022-08-20T09:09:58.694Z,38.49
2022-08-20T09:12:27.862Z,38.35
2022-08-20T09:14:54.873Z,38.33
2022-08-20T09:17:22.740Z,38.56
2022-08-20T09:20:07.704Z,38.29
2022-08-20T09:22:34.589Z,38.49
2022-08-20T09:25:03.530Z,38.53
2022-08-20T09:27:31.369Z,38.28
2022-08-20T09:29:58.346Z,38.65
2022-08-20T09:32:26.031Z,38.78
2022-08-20T09:34:57.010Z,38.77
2022-08-20T09:37:24.984Z,38.66
2022-08-20T09:39:52.189Z,38.42
2022-08-20T09:42:30.921Z,38.17
2022-08-20T09:44:58.267Z,38.48
2022-08-20T09:47:25.411Z,38.77
2022-08-20T09:49:52.733Z,38.30
2022-08-20T09:52:28.244Z,38.34
2022-08-20T09:54:58.175Z,37.89
2022-08-20T09:57:25.383Z,38.54
2022-08-20T09:59:54.917Z,38.23
2022-08-20T10:02:21.807Z,37.95
2022-08-20T10:04:49.035Z,38.46
2022-08-20T10:07:16.140Z,38.24
2022-08-20T10:09:43.090Z,38.29
2022-08-20T10:12:10.306Z,38.05
2022-08-20T10:14:37.212Z,38.12
2022-08-20T10:17:04.305Z,38.16
2022-08-20T10:19:31.835Z,38.19
2022-08-20T10:21:59.270Z,38.08
2022-08-20T10:24:26.437Z,37.68
2022-08-20T10:27:00.320Z,37.70
2022-08-20T10:29:27.686Z,38.13
2022-08-20T10:31:56.998Z,38.04
2022-08-20T10:34:25.015Z,38.26
2022-08-20T10:36:52.022Z,37.85
2022-08-20T10:39:19.236Z,37.67
2022-08-20T10:41:46.153Z,37.75
2022-08-20T10:44:13.057Z,37.54
2022-08-20T10:46:40.184Z,37.64
2022-08-20T10:49:07.205Z,37.94
2022-08-20T10:51:34.273Z,37.61
2022-08-20T10:54:01.914Z,37.00
2022-08-20T10:56:33.230Z,37.51
2022-08-20T10:59:00.176Z,37.09
2022-08-20T11:01:31.318Z,37.34
2022-08-20T11:03:58.636Z,37.57
2022-08-20T11:06:25.532Z,37.02
2022-08-20T11:08:52.640Z,37.34
2022-08-20T11:11:19.769Z,37.07
2022-08-20T11:13:46.626Z,37.06
2022-08-20T11:16:13.789Z,36.78
2022-08-20T11:18:43.782Z,37.23
2022-08-20T11:21:13.766Z,36.91
2022-08-20T11:23:40.883Z,36.64
2022-08-20T11:26:08.500Z,36.83
2022-08-20T11:28:35.439Z,36.42
2022-08-20T11:31:02.628Z,36.52
2022-08-20T11:33:29.638Z,36.55
2022-08-20T11:35:56.675Z,36.92
2022-08-20T11:38:24.155Z,36.93
2022-08-20T11:40:51.129Z,36.86
2022-08-20T11:43:18.519Z,36.55
2022-08-20T11:45:50.825Z,36.61
2022-08-20T11:48:18.266Z,36.74
2022-08-20T11:50:45.851Z,36.71
2022-08-20T11:53:12.943Z,36.99
2022-08-20T11:55:42.024Z,36.37
2022-08-20T11:58:09.694Z,36.32
2022-08-20T12:00:37.197Z,36.92
2022-08-20T12:03:07.895Z,37.08
2022-08-20T12:05:45.850Z,36.63
2022-08-20T12:08:26.985Z,36.44
2022-08-20T12:10:57.882Z,36.80
2022-08-20T12:13:30.989Z,37.06
2022-08-20T12:16:13.156Z,36.94
2022-08-20T12:18:40.337Z,36.70
2022-08-20T12:21:07.199Z,36.88
2022-08-20T12:23:34.138Z,36.52
2022-08-20T12:26:03.340Z,36.17
2022-08-20T12:28:30.818Z,36.61
2022-08-20T12:30:57.938Z,36.95
2022-08-20T12:33:25.156Z,36.66
2022-08-20T12:35:52.266Z,36.74
2022-08-20T12:38:19.206Z,36.41
2022-08-20T12:40:46.537Z,36.67
2022-08-20T12:43:13.459Z,36.75
2022-08-20T12:45:40.366Z,36.53
2022-08-20T12:48:12.108Z,36.97
2022-08-20T12:50:40.702Z,36.77
2022-08-20T12:53:07.652Z,36.72
2022-08-20T12:55:34.888Z,36.59
2022-08-20T12:58:02.797Z,36.73
2022-08-20T13:00:31.181Z,37.02
2022-08-20T13:02:59.981Z,36.87
2022-08-20T13:05:27.049Z,36.83
2022-08-20T13:07:54.200Z,36.53
2022-08-20T13:10:25.787Z,36.55
2022-08-20T13:12:52.897Z,37.08
2022-08-20T13:15:20.229Z,36.79
2022-08-20T13:17:51.972Z,36.65
2022-08-20T13:20:18.898Z,37.24
2022-08-20T13:22:45.794Z,37.01
2022-08-20T13:25:13.148Z,36.86
2022-08-20T13:27:41.190Z,37.16
2022-08-20T13:30:08.984Z,36.83
2022-08-20T13:32:36.157Z,36.97
2022-08-20T13:35:03.196Z,37.21
2022-08-20T13:37:30.088Z,37.42
2022-08-20T13:39:57.753Z,37.20
2022-08-20T13:42:24.844Z,37.34
2022-08-20T13:44:51.733Z,37.12
2022-08-20T13:47:24.917Z,36.89
2022-08-20T13:50:11.749Z,37.05
2022-08-20T13:52:39.157Z,37.44
2022-08-20T13:55:10.484Z,37.37
2022-08-20T13:57:37.476Z,36.96
2022-08-20T14:00:06.921Z,37.27
2022-08-20T14:02:33.855Z,37.23
2022-08-20T14:05:00.779Z,37.36
2022-08-20T14:07:32.510Z,37.53
2022-08-20T14:10:02.127Z,37.58
2022-08-20T14:12:30.746Z,37.70
2022-08-20T14:14:57.986Z,37.52
2022-08-20T14:17:29.990Z,37.12
2022-08-20T14:20:01.487Z,37.36
2022-08-20T14:22:29.007Z,37.47
2022-08-20T14:24:56.587Z,37.63
2022-08-20T14:27:29.063Z,37.42
2022-08-20T14:29:57.908Z,37.56
2022-08-20T14:32:25.184Z,37.71
2022-08-20T14:34:53.212Z,38.04
2022-08-20T14:37:23.484Z,37.92
2022-08-20T14:39:52.265Z,37.80
2022-08-20T14:42:19.248Z,37.91
2022-08-20T14:44:46.169Z,37.77
2022-08-20T14:47:20.268Z,38.28
2022-08-20T14:49:47.929Z,38.34
2022-08-20T14:52:15.571Z,37.97
2022-08-20T14:54:42.692Z,38.32
2022-08-20T14:57:12.381Z,38.50
2022-08-20T14:59:41.061Z,38.25
2022-08-20T15:02:09.199Z,38.31
2022-08-20T15:04:36.457Z,38.48
2022-08-20T15:07:10.916Z,38.09
2022-08-20T15:09:40.165Z,38.42
2022-08-20T15:12:07.441Z,38.29
2022-08-20T15:14:34.334Z,38.27
2022-08-20T15:17:06.122Z,38.52
2022-08-20T15:19:33.287Z,38.27
2022-08-20T15:22:00.565Z,38.23
2022-08-20T15:24:27.523Z,38.49
2022-08-20T15:26:54.673Z,38.58
2022-08-20T15:29:23.405Z,38.38
2022-08-20T15:31:51.112Z,38.13
2022-08-20T15:34:18.529Z,38.23
2022-08-20T15:36:45.879Z,37.98
2022-08-20T15:39:12.844Z,38.34
2022-08-20T15:41:40.012Z,37.93
2022-08-20T15:44:07.249Z,37.99
2022-08-20T15:46:39.553Z,38.26
2022-08-20T15:49:08.489Z,38.14
2022-08-20T15:51:39.977Z,38.20
2022-08-20T15:54:28.333Z,37.98
2022-08-20T15:57:14.730Z,38.18
2022-08-20T16:00:12.997Z,38.07
2022-08-20T16:03:28.422Z,38.09
2022-08-20T16:06:01.565Z,37.94
2022-08-20T16:08:34.966Z,37.99
2022-08-20T16:11:14.542Z,38.06
2022-08-20T16:13:53.502Z,38.17
2022-08-20T16:16:43.143Z,38.08
2022-08-20T16:19:12.405Z,38.11
2022-08-20T16:21:41.057Z,38.15
2022-08-20T16:24:08.325Z,38.24
2022-08-20T16:27:01.503Z,38.10
2022-08-20T16:29:56.912Z,38.30
2022-08-20T16:32:35.899Z,38.22
2022-08-20T16:35:29.044Z,38.23
2022-08-20T16:38:21.336Z,38.25
2022-08-20T16:41:20.810Z,38.41
2022-08-20T16:44:01.405Z,38.40
2022-08-20T16:46:35.001Z,38.31
2022-08-20T16:49:11.300Z,38.39
2022-08-20T16:51:40.786Z,38.40
2022-08-20T16:54:08.144Z,38.49
2022-08-20T16:56:35.894Z,38.39
2022-08-20T16:59:07.903Z,38.41
2022-08-20T17:01:35.015Z,38.58
2022-08-20T17:04:01.978Z,38.57
2022-08-20T17:06:38.542Z,38.65
2022-08-20T17:09:14.594Z,38.71
2022-08-20T17:12:07.398Z,38.59
2022-08-20T17:14:34.257Z,38.88
2022-08-20T17:17:01.400Z,38.69
2022-08-20T17:19:31.672Z,38.66
2022-08-20T17:22:12.502Z,38.72
2022-08-20T17:24:40.484Z,38.93
2022-08-20T17:27:15.432Z,38.77
2022-08-20T17:29:53.910Z,38.73
2022-08-20T17:32:24.068Z,38.75
2022-08-20T17:34:52.772Z,38.57
2022-08-20T17:37:27.096Z,38.83
2022-08-20T17:39:55.992Z,38.70
2022-08-20T17:42:26.577Z,38.79
2022-08-20T17:44:56.128Z,38.96
2022-08-20T17:47:32.583Z,39.06
2022-08-20T17:50:29.723Z,38.63
2022-08-20T17:53:01.203Z,38.98
2022-08-20T17:55:28.080Z,38.92
2022-08-20T17:57:56.995Z,39.02
2022-08-20T18:00:25.955Z,38.91
2022-08-20T18:03:08.954Z,39.01
2022-08-20T18:05:36.352Z,38.98
2022-08-20T18:08:37.881Z,38.79
2022-08-20T18:11:09.152Z,38.74
2022-08-20T18:13:48.167Z,39.18
2022-08-20T18:16:22.421Z,39.08
2022-08-20T18:19:27.760Z,39.11
2022-08-20T18:21:58.552Z,39.20
2022-08-20T18:24:30.208Z,38.99
2022-08-20T18:27:00.902Z,39.10
2022-08-20T18:29:34.167Z,39.10
2022-08-20T18:32:02.910Z,39.22
2022-08-20T18:34:29.778Z,38.94
2022-08-20T18:37:01.527Z,39.36
2022-08-20T18:39:33.809Z,39.46
2022-08-20T18:42:03.450Z,39.53
2022-08-20T18:44:43.951Z,39.29
2022-08-20T18:47:32.208Z,39.40
2022-08-20T18:50:00.391Z,39.76
2022-08-20T18:52:31.232Z,39.67
2022-08-20T18:54:59.989Z,39.42
2022-08-20T18:57:27.117Z,39.35
2022-08-20T19:00:08.497Z,39.55
2022-08-20T19:02:36.543Z,39.46
2022-08-20T19:05:07.790Z,39.64
2022-08-20T19:07:48.559Z,39.71
2022-08-20T19:10:43.034Z,39.85
2022-08-20T19:13:31.851Z,39.49
2022-08-20T19:16:02.683Z,39.41
2022-08-20T19:18:54.356Z,39.74
2022-08-20T19:21:30.947Z,39.77
2022-08-20T19:24:00.691Z,39.54
2022-08-20T19:26:29.421Z,39.77
2022-08-20T19:29:07.353Z,39.98
2022-08-20T19:31:34.715Z,39.80
2022-08-20T19:34:20.054Z,39.82
2022-08-20T19:37:35.137Z,39.56
2022-08-20T19:39:53.868Z,40.09
2022-08-20T19:42:59.603Z,39.71
2022-08-20T19:46:01.085Z,39.79
2022-08-20T19:48:41.582Z,39.81
2022-08-20T19:51:43.495Z,40.18
2022-08-20T19:54:22.245Z,40.06
2022-08-20T19:56:49.276Z,40.21
2022-08-20T19:59:20.768Z,39.74
2022-08-20T20:02:00.069Z,40.06
2022-08-20T20:04:29.772Z,39.96
2022-08-20T20:06:58.417Z,40.09
2022-08-20T20:09:27.096Z,40.45
2022-08-20T20:11:58.428Z,40.63
2022-08-20T20:14:33.244Z,40.51
2022-08-20T20:17:00.491Z,40.50
2022-08-20T20:19:28.285Z,40.38
2022-08-20T20:22:19.380Z,40.51
2022-08-20T20:24:50.828Z,40.87
2022-08-20T20:27:22.220Z,40.51
2022-08-20T20:29:49.726Z,40.38
2022-08-20T20:32:21.728Z,40.33
2022-08-20T20:34:55.411Z,40.23
2022-08-20T20:37:44.646Z,40.64
2022-08-20T20:40:25.757Z,40.46
2022-08-20T20:43:05.541Z,40.47
2022-08-20T20:45:35.701Z,40.57
2022-08-20T20:48:20.157Z,40.38
2022-08-20T20:50:47.847Z,40.52
2022-08-20T20:53:24.652Z,40.48
2022-08-20T20:56:02.079Z,40.69
2022-08-20T20:58:29.504Z,41.01
2022-08-20T21:00:58.102Z,40.76
2022-08-20T21:03:25.006Z,40.63
2022-08-20T21:05:52.594Z,40.74
2022-08-20T21:08:19.529Z,40.67
2022-08-20T21:10:48.935Z,40.73
2022-08-20T21:13:16.493Z,40.91
2022-08-20T21:15:43.376Z,40.79
2022-08-20T21:18:10.865Z,40.89
2022-08-20T21:20:38.093Z,41.18
2022-08-20T21:23:05.257Z,41.31
2022-08-20T21:25:32.369Z,41.04
2022-08-20T21:27:59.521Z,40.97
2022-08-20T21:30:27.097Z,40.62
2022-08-20T21:32:54.200Z,41.12
2022-08-20T21:35:21.488Z,41.10
2022-08-20T21:37:48.348Z,40.84
2022-08-20T21:40:15.321Z,41.01
2022-08-20T21:42:45.355Z,41.15
2022-08-20T21:45:14.804Z,40.99
2022-08-20T21:47:46.830Z,41.22
2022-08-20T21:50:18.830Z,40.70
2022-08-20T21:53:00.076Z,40.85
2022-08-20T21:55:29.729Z,40.60
2022-08-20T21:57:57.631Z,40.77
2022-08-20T22:00:47.111Z,40.93
2022-08-20T22:03:15.734Z,41.22
2022-08-20T22:05:43.001Z,41.42
2022-08-20T22:08:10.316Z,41.18
2022-08-20T22:10:38.013Z,40.83
2022-08-20T22:13:04.978Z,41.26
2022-08-20T22:15:31.889Z,41.09
2022-08-20T22:17:59.053Z,41.40
2022-08-20T22:20:26.260Z,41.87
2022-08-20T22:22:53.184Z,41.36
2022-08-20T22:25:20.519Z,41.74
2022-08-20T22:27:47.483Z,41.55
2022-08-20T22:30:18.950Z,41.21
2022-08-20T22:32:51.606Z,41.56
2022-08-20T22:35:19.493Z,41.47
2022-08-20T22:37:46.388Z,41.32
2022-08-20T22:40:13.700Z,41.47
2022-08-20T22:42:40.563Z,41.38
2022-08-20T22:45:11.562Z,41.67
2022-08-20T22:47:44.449Z,41.44
2022-08-20T22:50:12.269Z,41.59
2022-08-20T22:52:46.057Z,41.55
